sensor_id;sensor_type;location;lat;lon;timestamp;pressure;altitude;pressure_sealevel;temperature;humidity
78117;BME280;69042;59.120;37.904;2023-08-24T00:01:27;99920.00;;;11.44;66.64
78117;BME280;69042;59.120;37.904;2023-08-24T00:03:53;99921.06;;;11.40;66.81
78117;BME280;69042;59.120;37.904;2023-08-24T00:06:20;99924.69;;;11.37;66.93
78117;BME280;69042;59.120;37.904;2023-08-24T00:08:46;99922.22;;;11.34;66.95
78117;BME280;69042;59.120;37.904;2023-08-24T00:11:13;99923.97;;;11.34;67.17
78117;BME280;69042;59.120;37.904;2023-08-24T00:13:42;99930.16;;;11.33;67.19
78117;BME280;69042;59.120;37.904;2023-08-24T00:16:12;99938.00;;;11.33;67.22
78117;BME280;69042;59.120;37.904;2023-08-24T00:18:38;99931.13;;;11.30;67.34
78117;BME280;69042;59.120;37.904;2023-08-24T00:21:04;99932.06;;;11.29;67.31
78117;BME280;69042;59.120;37.904;2023-08-24T00:23:31;99938.22;;;11.28;67.45
78117;BME280;69042;59.120;37.904;2023-08-24T00:25:57;99931.22;;;11.29;67.47
78117;BME280;69042;59.120;37.904;2023-08-24T00:28:23;99934.88;;;11.24;67.54
78117;BME280;69042;59.120;37.904;2023-08-24T00:30:49;99932.22;;;11.26;67.81
78117;BME280;69042;59.120;37.904;2023-08-24T00:33:16;99933.94;;;11.25;67.73
78117;BME280;69042;59.120;37.904;2023-08-24T00:35:43;99939.28;;;11.24;67.80
78117;BME280;69042;59.120;37.904;2023-08-24T00:38:09;99937.66;;;11.21;67.67
78117;BME280;69042;59.120;37.904;2023-08-24T00:40:35;99933.50;;;11.17;67.69
78117;BME280;69042;59.120;37.904;2023-08-24T00:43:01;99943.94;;;11.17;67.32
78117;BME280;69042;59.120;37.904;2023-08-24T00:45:31;99938.00;;;11.14;67.46
78117;BME280;69042;59.120;37.904;2023-08-24T00:51:17;99949.53;;;11.10;68.04
78117;BME280;69042;59.120;37.904;2023-08-24T00:53:45;99948.06;;;11.04;67.61
78117;BME280;69042;59.120;37.904;2023-08-24T00:56:12;99953.28;;;11.04;67.75
78117;BME280;69042;59.120;37.904;2023-08-24T00:58:38;99950.75;;;11.02;68.24
78117;BME280;69042;59.120;37.904;2023-08-24T01:01:05;99955.19;;;11.00;68.10
78117;BME280;69042;59.120;37.904;2023-08-24T01:03:33;99951.78;;;10.98;68.29
78117;BME280;69042;59.120;37.904;2023-08-24T01:05:59;99960.56;;;10.97;68.25
78117;BME280;69042;59.120;37.904;2023-08-24T01:08:25;99952.72;;;10.97;68.25
78117;BME280;69042;59.120;37.904;2023-08-24T01:11:02;99959.78;;;10.95;68.41
78117;BME280;69042;59.120;37.904;2023-08-24T01:13:38;99957.31;;;10.92;68.23
78117;BME280;69042;59.120;37.904;2023-08-24T01:16:35;99957.44;;;10.89;68.47
78117;BME280;69042;59.120;37.904;2023-08-24T01:19:10;99962.63;;;10.91;68.45
78117;BME280;69042;59.120;37.904;2023-08-24T01:21:39;99963.59;;;10.88;68.46
78117;BME280;69042;59.120;37.904;2023-08-24T01:24:13;99955.88;;;10.85;68.65
78117;BME280;69042;59.120;37.904;2023-08-24T01:26:43;99967.28;;;10.84;68.61
78117;BME280;69042;59.120;37.904;2023-08-24T01:29:10;99959.59;;;10.81;68.85
78117;BME280;69042;59.120;37.904;2023-08-24T01:31:36;99959.69;;;10.78;68.65
78117;BME280;69042;59.120;37.904;2023-08-24T01:34:03;99969.38;;;10.76;68.82
78117;BME280;69042;59.120;37.904;2023-08-24T01:36:30;99965.97;;;10.74;68.83
78117;BME280;69042;59.120;37.904;2023-08-24T01:39:23;99962.63;;;10.72;69.38
78117;BME280;69042;59.120;37.904;2023-08-24T01:41:55;99967.84;;;10.72;68.94
78117;BME280;69042;59.120;37.904;2023-08-24T01:44:25;99968.88;;;10.68;69.10
78117;BME280;69042;59.120;37.904;2023-08-24T01:46:54;99968.16;;;10.64;69.18
78117;BME280;69042;59.120;37.904;2023-08-24T01:49:21;99977.63;;;10.67;69.25
78117;BME280;69042;59.120;37.904;2023-08-24T01:51:48;99972.50;;;10.65;69.37
78117;BME280;69042;59.120;37.904;2023-08-24T01:54:15;99971.78;;;10.61;69.35
78117;BME280;69042;59.120;37.904;2023-08-24T01:56:41;99976.16;;;10.61;69.49
78117;BME280;69042;59.120;37.904;2023-08-24T01:59:08;99971.00;;;10.59;69.58
78117;BME280;69042;59.120;37.904;2023-08-24T02:01:34;99978.88;;;10.58;69.55
78117;BME280;69042;59.120;37.904;2023-08-24T02:04:00;99977.25;;;10.55;69.76
78117;BME280;69042;59.120;37.904;2023-08-24T02:06:27;99968.72;;;10.52;69.62
78117;BME280;69042;59.120;37.904;2023-08-24T02:08:54;99975.69;;;10.51;69.86
78117;BME280;69042;59.120;37.904;2023-08-24T02:11:20;99978.41;;;10.50;69.86
78117;BME280;69042;59.120;37.904;2023-08-24T02:13:46;99984.47;;;10.50;69.82
78117;BME280;69042;59.120;37.904;2023-08-24T02:16:14;99975.91;;;10.47;69.96
78117;BME280;69042;59.120;37.904;2023-08-24T02:18:40;99976.81;;;10.46;70.07
78117;BME280;69042;59.120;37.904;2023-08-24T02:21:11;99988.13;;;10.46;70.15
78117;BME280;69042;59.120;37.904;2023-08-24T02:23:41;99977.81;;;10.43;69.98
78117;BME280;69042;59.120;37.904;2023-08-24T02:26:08;99990.03;;;10.43;70.17
78117;BME280;69042;59.120;37.904;2023-08-24T02:28:37;99985.66;;;10.43;70.00
78117;BME280;69042;59.120;37.904;2023-08-24T02:31:04;99982.19;;;10.43;70.21
78117;BME280;69042;59.120;37.904;2023-08-24T02:33:31;99983.94;;;10.42;70.25
78117;BME280;69042;59.120;37.904;2023-08-24T02:35:57;99978.78;;;10.40;70.40
78117;BME280;69042;59.120;37.904;2023-08-24T02:38:24;99976.25;;;10.39;70.42
78117;BME280;69042;59.120;37.904;2023-08-24T02:41:03;99972.69;;;10.40;70.71
78117;BME280;69042;59.120;37.904;2023-08-24T02:43:30;99966.63;;;10.39;70.29
78117;BME280;69042;59.120;37.904;2023-08-24T02:46:01;99969.19;;;10.41;70.56
78117;BME280;69042;59.120;37.904;2023-08-24T02:48:28;99972.50;;;10.45;70.32
78117;BME280;69042;59.120;37.904;2023-08-24T02:50:54;99968.94;;;10.47;70.48
78117;BME280;69042;59.120;37.904;2023-08-24T02:53:21;99967.16;;;10.48;70.71
78117;BME280;69042;59.120;37.904;2023-08-24T02:55:47;99979.19;;;10.52;70.65
78117;BME280;69042;59.120;37.904;2023-08-24T02:58:13;99973.94;;;10.52;70.74
78117;BME280;69042;59.120;37.904;2023-08-24T03:00:39;99972.88;;;10.56;70.61
78117;BME280;69042;59.120;37.904;2023-08-24T03:03:06;99980.59;;;10.59;70.75
78117;BME280;69042;59.120;37.904;2023-08-24T03:05:32;99971.78;;;10.61;70.82
78117;BME280;69042;59.120;37.904;2023-08-24T03:07:59;99977.63;;;10.67;70.77
78117;BME280;69042;59.120;37.904;2023-08-24T03:10:25;99980.91;;;10.72;70.85
78117;BME280;69042;59.120;37.904;2023-08-24T03:12:52;99976.31;;;10.77;70.79
78117;BME280;69042;59.120;37.904;2023-08-24T03:15:19;99975.13;;;10.84;70.99
78117;BME280;69042;59.120;37.904;2023-08-24T03:17:47;99980.06;;;10.90;70.84
78117;BME280;69042;59.120;37.904;2023-08-24T03:20:13;99978.09;;;10.95;70.75
78117;BME280;69042;59.120;37.904;2023-08-24T03:22:40;99980.44;;;11.01;70.92
78117;BME280;69042;59.120;37.904;2023-08-24T03:25:07;99978.28;;;11.10;70.84
78117;BME280;69042;59.120;37.904;2023-08-24T03:27:33;99983.25;;;11.16;70.73
78117;BME280;69042;59.120;37.904;2023-08-24T03:29:59;99984.66;;;11.23;70.98
78117;BME280;69042;59.120;37.904;2023-08-24T03:32:26;99981.81;;;11.28;70.83
78117;BME280;69042;59.120;37.904;2023-08-24T03:35:00;99979.84;;;11.33;70.92
78117;BME280;69042;59.120;37.904;2023-08-24T03:37:28;99987.47;;;11.37;71.02
78117;BME280;69042;59.120;37.904;2023-08-24T03:39:54;99990.56;;;11.45;70.96
78117;BME280;69042;59.120;37.904;2023-08-24T03:42:20;99988.44;;;11.54;70.85
78117;BME280;69042;59.120;37.904;2023-08-24T03:44:47;99982.91;;;11.60;70.66
78117;BME280;69042;59.120;37.904;2023-08-24T03:47:13;99985.97;;;11.68;70.65
78117;BME280;69042;59.120;37.904;2023-08-24T03:49:42;99980.28;;;11.77;70.59
78117;BME280;69042;59.120;37.904;2023-08-24T03:52:09;99978.31;;;11.82;70.54
78117;BME280;69042;59.120;37.904;2023-08-24T03:54:35;99976.19;;;11.91;70.45
78117;BME280;69042;59.120;37.904;2023-08-24T03:57:02;99982.91;;;11.96;70.36
78117;BME280;69042;59.120;37.904;2023-08-24T03:59:28;99980.72;;;12.04;70.40
78117;BME280;69042;59.120;37.904;2023-08-24T04:01:54;99976.13;;;12.10;70.34
78117;BME280;69042;59.120;37.904;2023-08-24T04:04:20;99980.06;;;12.18;70.30
78117;BME280;69042;59.120;37.904;2023-08-24T04:06:47;99986.56;;;12.27;70.20
78117;BME280;69042;59.120;37.904;2023-08-24T04:09:15;99981.88;;;12.34;70.33
78117;BME280;69042;59.120;37.904;2023-08-24T04:11:41;99985.03;;;12.40;70.02
78117;BME280;69042;59.120;37.904;2023-08-24T04:14:07;99992.50;;;12.48;69.72
78117;BME280;69042;59.120;37.904;2023-08-24T04:16:34;99988.81;;;12.52;69.85
78117;BME280;69042;59.120;37.904;2023-08-24T04:19:00;99989.31;;;12.59;69.67
78117;BME280;69042;59.120;37.904;2023-08-24T04:21:26;99990.84;;;12.63;69.51
78117;BME280;69042;59.120;37.904;2023-08-24T04:23:53;99988.84;;;12.68;69.36
78117;BME280;69042;59.120;37.904;2023-08-24T04:26:19;99987.72;;;12.72;69.50
78117;BME280;69042;59.120;37.904;2023-08-24T04:28:46;99993.34;;;12.82;69.17
78117;BME280;69042;59.120;37.904;2023-08-24T04:31:12;99987.78;;;12.88;69.17
78117;BME280;69042;59.120;37.904;2023-08-24T04:33:38;99991.84;;;12.94;68.89
78117;BME280;69042;59.120;37.904;2023-08-24T04:36:04;99988.88;;;13.00;68.92
78117;BME280;69042;59.120;37.904;2023-08-24T04:38:31;99988.88;;;13.00;68.81
78117;BME280;69042;59.120;37.904;2023-08-24T04:40:57;99987.69;;;13.05;68.48
78117;BME280;69042;59.120;37.904;2023-08-24T04:43:24;99995.41;;;13.08;68.62
78117;BME280;69042;59.120;37.904;2023-08-24T04:45:53;99997.88;;;13.11;68.55
78117;BME280;69042;59.120;37.904;2023-08-24T04:48:20;99999.16;;;13.20;68.55
78117;BME280;69042;59.120;37.904;2023-08-24T04:50:46;100000.56;;;13.26;68.57
78117;BME280;69042;59.120;37.904;2023-08-24T04:53:14;99997.47;;;13.35;68.32
78117;BME280;69042;59.120;37.904;2023-08-24T04:55:41;100001.63;;;13.39;67.94
78117;BME280;69042;59.120;37.904;2023-08-24T04:58:11;99998.47;;;13.48;67.63
78117;BME280;69042;59.120;37.904;2023-08-24T05:00:38;99997.38;;;13.52;67.88
78117;BME280;69042;59.120;37.904;2023-08-24T05:03:05;100002.22;;;13.60;68.04
78117;BME280;69042;59.120;37.904;2023-08-24T05:05:32;100007.22;;;13.65;67.49
78117;BME280;69042;59.120;37.904;2023-08-24T05:08:00;100001.78;;;13.68;67.67
78117;BME280;69042;59.120;37.904;2023-08-24T05:10:30;100002.28;;;13.74;67.45
78117;BME280;69042;59.120;37.904;2023-08-24T05:12:57;100005.31;;;13.83;67.43
78117;BME280;69042;59.120;37.904;2023-08-24T05:15:23;99999.59;;;13.90;67.38
78117;BME280;69042;59.120;37.904;2023-08-24T05:17:49;99994.66;;;14.00;67.35
78117;BME280;69042;59.120;37.904;2023-08-24T05:20:18;99996.50;;;14.14;66.93
78117;BME280;69042;59.120;37.904;2023-08-24T05:22:45;99999.22;;;14.27;66.62
78117;BME280;69042;59.120;37.904;2023-08-24T05:25:11;99998.41;;;14.41;66.36
78117;BME280;69042;59.120;37.904;2023-08-24T05:27:39;99984.53;;;14.53;65.88
78117;BME280;69042;59.120;37.904;2023-08-24T05:30:06;99991.69;;;14.65;65.56
78117;BME280;69042;59.120;37.904;2023-08-24T05:32:32;100002.31;;;14.78;65.73
78117;BME280;69042;59.120;37.904;2023-08-24T05:35:00;99991.03;;;14.90;65.26
78117;BME280;69042;59.120;37.904;2023-08-24T05:37:26;99987.56;;;15.04;65.11
78117;BME280;69042;59.120;37.904;2023-08-24T05:39:52;99988.66;;;15.14;64.86
78117;BME280;69042;59.120;37.904;2023-08-24T05:42:18;99992.31;;;15.26;64.60
78117;BME280;69042;59.120;37.904;2023-08-24T05:44:44;99998.59;;;15.38;64.28
78117;BME280;69042;59.120;37.904;2023-08-24T05:47:10;99996.13;;;15.49;63.93
78117;BME280;69042;59.120;37.904;2023-08-24T05:49:37;99993.72;;;15.59;63.64
78117;BME280;69042;59.120;37.904;2023-08-24T05:52:03;99994.19;;;15.66;63.33
78117;BME280;69042;59.120;37.904;2023-08-24T05:54:29;99988.59;;;15.70;62.92
78117;BME280;69042;59.120;37.904;2023-08-24T05:56:55;99993.38;;;15.78;62.54
78117;BME280;69042;59.120;37.904;2023-08-24T05:59:27;99999.66;;;15.90;62.41
78117;BME280;69042;59.120;37.904;2023-08-24T06:01:53;100001.88;;;15.96;62.06
78117;BME280;69042;59.120;37.904;2023-08-24T06:04:19;100000.63;;;16.01;61.91
78117;BME280;69042;59.120;37.904;2023-08-24T06:06:46;100000.31;;;16.06;61.62
78117;BME280;69042;59.120;37.904;2023-08-24T06:09:12;100000.13;;;16.09;61.22
78117;BME280;69042;59.120;37.904;2023-08-24T06:11:38;99999.63;;;16.17;61.28
78117;BME280;69042;59.120;37.904;2023-08-24T06:14:06;100004.28;;;16.26;61.03
78117;BME280;69042;59.120;37.904;2023-08-24T06:16:32;100005.00;;;16.28;61.11
78117;BME280;69042;59.120;37.904;2023-08-24T06:18:59;100003.94;;;16.31;60.95
78117;BME280;69042;59.120;37.904;2023-08-24T06:21:25;99988.75;;;16.34;60.91
78117;BME280;69042;59.120;37.904;2023-08-24T06:23:51;100002.38;;;16.41;60.78
78117;BME280;69042;59.120;37.904;2023-08-24T06:26:18;99998.56;;;16.45;60.49
78117;BME280;69042;59.120;37.904;2023-08-24T06:28:44;100001.84;;;16.49;60.45
78117;BME280;69042;59.120;37.904;2023-08-24T06:31:10;100003.34;;;16.53;60.20
78117;BME280;69042;59.120;37.904;2023-08-24T06:33:38;100006.59;;;16.56;60.16
78117;BME280;69042;59.120;37.904;2023-08-24T06:36:05;100008.91;;;16.61;60.11
78117;BME280;69042;59.120;37.904;2023-08-24T06:38:31;100012.28;;;16.63;59.77
78117;BME280;69042;59.120;37.904;2023-08-24T06:40:58;100009.44;;;16.66;59.68
78117;BME280;69042;59.120;37.904;2023-08-24T06:43:25;100017.78;;;16.73;59.64
78117;BME280;69042;59.120;37.904;2023-08-24T06:45:52;100015.69;;;16.78;59.54
78117;BME280;69042;59.120;37.904;2023-08-24T06:48:18;100011.91;;;16.82;59.29
78117;BME280;69042;59.120;37.904;2023-08-24T06:50:44;100006.31;;;16.87;58.82
78117;BME280;69042;59.120;37.904;2023-08-24T06:53:10;100008.72;;;16.90;58.62
78117;BME280;69042;59.120;37.904;2023-08-24T06:55:36;100005.75;;;16.94;58.26
78117;BME280;69042;59.120;37.904;2023-08-24T06:58:03;100009.03;;;16.98;58.09
78117;BME280;69042;59.120;37.904;2023-08-24T07:00:32;100013.88;;;17.04;57.93
78117;BME280;69042;59.120;37.904;2023-08-24T07:02:59;100020.41;;;17.11;57.92
78117;BME280;69042;59.120;37.904;2023-08-24T07:05:25;100014.50;;;17.20;57.62
78117;BME280;69042;59.120;37.904;2023-08-24T07:07:52;100016.56;;;17.28;56.78
78117;BME280;69042;59.120;37.904;2023-08-24T07:10:19;100016.00;;;17.36;56.68
78117;BME280;69042;59.120;37.904;2023-08-24T07:12:46;100019.69;;;17.46;56.69
78117;BME280;69042;59.120;37.904;2023-08-24T07:15:14;100018.06;;;17.56;55.99
78117;BME280;69042;59.120;37.904;2023-08-24T07:17:40;100015.59;;;17.66;55.58
78117;BME280;69042;59.120;37.904;2023-08-24T07:20:08;100013.22;;;17.74;55.18
78117;BME280;69042;59.120;37.904;2023-08-24T07:22:34;100019.56;;;17.84;54.84
78117;BME280;69042;59.120;37.904;2023-08-24T07:25:01;100021.50;;;17.94;54.41
78117;BME280;69042;59.120;37.904;2023-08-24T07:27:34;100008.56;;;18.02;53.56
78117;BME280;69042;59.120;37.904;2023-08-24T07:30:02;100019.19;;;18.13;54.20
78117;BME280;69042;59.120;37.904;2023-08-24T07:32:32;100007.81;;;18.24;53.57
78117;BME280;69042;59.120;37.904;2023-08-24T07:35:00;100015.88;;;18.34;53.39
78117;BME280;69042;59.120;37.904;2023-08-24T07:37:26;100012.19;;;18.47;53.56
78117;BME280;69042;59.120;37.904;2023-08-24T07:39:52;100022.16;;;18.66;53.06
78117;BME280;69042;59.120;37.904;2023-08-24T07:42:20;100020.66;;;18.86;52.68
78117;BME280;69042;59.120;37.904;2023-08-24T07:44:47;100021.75;;;19.06;52.15
78117;BME280;69042;59.120;37.904;2023-08-24T07:47:17;100017.50;;;19.26;51.24
78117;BME280;69042;59.120;37.904;2023-08-24T07:49:43;100023.88;;;19.46;50.86
78117;BME280;69042;59.120;37.904;2023-08-24T07:52:11;100023.56;;;19.61;50.62
78117;BME280;69042;59.120;37.904;2023-08-24T07:54:38;100031.31;;;19.75;50.42
78117;BME280;69042;59.120;37.904;2023-08-24T07:57:05;100019.41;;;19.90;49.70
78117;BME280;69042;59.120;37.904;2023-08-24T07:59:31;100022.63;;;20.05;49.39
78117;BME280;69042;59.120;37.904;2023-08-24T08:01:58;100027.28;;;20.13;48.61
78117;BME280;69042;59.120;37.904;2023-08-24T08:04:24;100022.75;;;20.25;48.83
78117;BME280;69042;59.120;37.904;2023-08-24T08:06:50;100025.47;;;20.34;48.28
78117;BME280;69042;59.120;37.904;2023-08-24T08:09:16;100025.91;;;20.39;47.85
78117;BME280;69042;59.120;37.904;2023-08-24T08:11:42;100023.41;;;20.38;47.43
78117;BME280;69042;59.120;37.904;2023-08-24T08:14:09;100020.44;;;20.31;47.44
78117;BME280;69042;59.120;37.904;2023-08-24T08:16:35;100016.91;;;20.31;47.48
78117;BME280;69042;59.120;37.904;2023-08-24T08:19:02;100029.13;;;20.33;47.01
78117;BME280;69042;59.120;37.904;2023-08-24T08:21:28;100029.34;;;20.30;46.89
78117;BME280;69042;59.120;37.904;2023-08-24T08:23:55;100039.13;;;20.30;47.16
78117;BME280;69042;59.120;37.904;2023-08-24T08:26:21;100033.94;;;20.28;46.91
78117;BME280;69042;59.120;37.904;2023-08-24T08:28:47;100029.75;;;20.26;46.45
78117;BME280;69042;59.120;37.904;2023-08-24T08:31:13;100029.03;;;20.24;46.53
78117;BME280;69042;59.120;37.904;2023-08-24T08:33:40;100022.28;;;20.20;45.98
78117;BME280;69042;59.120;37.904;2023-08-24T08:36:06;100026.44;;;20.12;46.04
78117;BME280;69042;59.120;37.904;2023-08-24T08:38:32;100027.47;;;20.00;45.78
78117;BME280;69042;59.120;37.904;2023-08-24T08:41:03;100028.22;;;19.91;45.96
78117;BME280;69042;59.120;37.904;2023-08-24T08:43:30;100027.16;;;19.82;46.13
78117;BME280;69042;59.120;37.904;2023-08-24T08:45:56;100021.41;;;19.77;46.07
78117;BME280;69042;59.120;37.904;2023-08-24T08:48:24;100031.69;;;19.70;46.22
78117;BME280;69042;59.120;37.904;2023-08-24T08:50:52;100024.69;;;19.58;45.63
78117;BME280;69042;59.120;37.904;2023-08-24T08:53:22;100031.19;;;19.54;45.52
78117;BME280;69042;59.120;37.904;2023-08-24T08:55:54;100030.59;;;19.50;45.98
78117;BME280;69042;59.120;37.904;2023-08-24T08:58:21;100025.41;;;19.49;46.32
78117;BME280;69042;59.120;37.904;2023-08-24T09:00:48;100030.13;;;19.45;46.42
78117;BME280;69042;59.120;37.904;2023-08-24T09:03:18;100027.63;;;19.44;45.99
78117;BME280;69042;59.120;37.904;2023-08-24T09:05:45;100033.66;;;19.34;46.30
78117;BME280;69042;59.120;37.904;2023-08-24T09:08:18;100025.72;;;19.23;45.99
78117;BME280;69042;59.120;37.904;2023-08-24T09:10:44;100033.41;;;19.15;45.97
78117;BME280;69042;59.120;37.904;2023-08-24T09:13:11;100022.59;;;19.07;46.54
78117;BME280;69042;59.120;37.904;2023-08-24T09:15:38;100028.03;;;19.05;46.76
78117;BME280;69042;59.120;37.904;2023-08-24T09:18:04;100021.03;;;19.04;46.71
78117;BME280;69042;59.120;37.904;2023-08-24T09:20:31;100026.19;;;19.06;46.51
78117;BME280;69042;59.120;37.904;2023-08-24T09:22:58;100021.16;;;19.03;47.00
78117;BME280;69042;59.120;37.904;2023-08-24T09:25:24;100024.50;;;19.05;46.57
78117;BME280;69042;59.120;37.904;2023-08-24T09:30:32;100027.16;;;19.05;47.08
78117;BME280;69042;59.120;37.904;2023-08-24T09:33:03;100031.97;;;19.11;46.73
78117;BME280;69042;59.120;37.904;2023-08-24T09:35:33;100033.69;;;19.12;46.49
78117;BME280;69042;59.120;37.904;2023-08-24T09:38:20;100037.88;;;19.14;46.50
78117;BME280;69042;59.120;37.904;2023-08-24T09:40:50;100042.94;;;19.18;47.07
78117;BME280;69042;59.120;37.904;2023-08-24T09:43:17;100035.09;;;19.16;46.58
78117;BME280;69042;59.120;37.904;2023-08-24T09:45:53;100040.38;;;19.16;46.29
78117;BME280;69042;59.120;37.904;2023-08-24T09:48:20;100035.47;;;19.11;46.24
78117;BME280;69042;59.120;37.904;2023-08-24T09:50:50;100035.59;;;19.10;46.53
78117;BME280;69042;59.120;37.904;2023-08-24T09:53:23;100035.47;;;19.11;46.38
78117;BME280;69042;59.120;37.904;2023-08-24T09:55:59;100038.72;;;19.15;46.59
78117;BME280;69042;59.120;37.904;2023-08-24T09:58:26;100026.31;;;19.16;46.46
78117;BME280;69042;59.120;37.904;2023-08-24T10:00:54;100029.22;;;19.12;46.28
78117;BME280;69042;59.120;37.904;2023-08-24T10:03:24;100031.38;;;19.19;46.19
78117;BME280;69042;59.120;37.904;2023-08-24T10:05:53;100025.00;;;19.21;46.42
78117;BME280;69042;59.120;37.904;2023-08-24T10:08:35;100032.94;;;19.32;46.78
78117;BME280;69042;59.120;37.904;2023-08-24T10:11:02;100028.44;;;19.44;46.51
78117;BME280;69042;59.120;37.904;2023-08-24T10:14:00;100028.03;;;19.60;45.94
78117;BME280;69042;59.120;37.904;2023-08-24T10:16:33;100025.00;;;19.76;46.31
78117;BME280;69042;59.120;37.904;2023-08-24T10:19:00;100019.56;;;19.89;46.00
78117;BME280;69042;59.120;37.904;2023-08-24T10:21:28;100020.69;;;20.07;45.93
78117;BME280;69042;59.120;37.904;2023-08-24T10:23:56;100017.41;;;20.36;45.54
78117;BME280;69042;59.120;37.904;2023-08-24T10:26:23;100015.38;;;20.70;45.50
78117;BME280;69042;59.120;37.904;2023-08-24T10:28:50;100020.41;;;21.04;45.27
78117;BME280;69042;59.120;37.904;2023-08-24T10:31:17;100009.88;;;21.33;45.01
78117;BME280;69042;59.120;37.904;2023-08-24T10:33:45;100008.97;;;21.63;44.33
78117;BME280;69042;59.120;37.904;2023-08-24T10:36:15;100016.97;;;21.73;43.83
78117;BME280;69042;59.120;37.904;2023-08-24T10:38:43;100021.03;;;21.77;43.24
78117;BME280;69042;59.120;37.904;2023-08-24T10:41:10;100015.00;;;21.66;42.91
78117;BME280;69042;59.120;37.904;2023-08-24T10:43:40;100024.22;;;21.52;42.69
78117;BME280;69042;59.120;37.904;2023-08-24T10:46:14;100023.16;;;21.33;42.76
78117;BME280;69042;59.120;37.904;2023-08-24T10:53:40;100032.38;;;20.58;43.07
78117;BME280;69042;59.120;37.904;2023-08-24T10:56:13;100037.97;;;20.23;43.72
78117;BME280;69042;59.120;37.904;2023-08-24T10:58:41;100052.59;;;19.85;44.55
78117;BME280;69042;59.120;37.904;2023-08-24T11:01:14;100050.25;;;19.48;45.29
78117;BME280;69042;59.120;37.904;2023-08-24T11:03:41;100040.38;;;19.16;46.35
78117;BME280;69042;59.120;37.904;2023-08-24T11:06:21;100051.97;;;18.92;47.43
78117;BME280;69042;59.120;37.904;2023-08-24T11:08:49;100045.69;;;18.82;48.12
78117;BME280;69042;59.120;37.904;2023-08-24T11:11:23;100039.28;;;18.73;48.88
78117;BME280;69042;59.120;37.904;2023-08-24T11:14:13;100037.47;;;18.74;49.36
78117;BME280;69042;59.120;37.904;2023-08-24T11:16:46;100042.34;;;18.80;48.85
78117;BME280;69042;59.120;37.904;2023-08-24T11:19:13;100039.19;;;18.86;49.04
78117;BME280;69042;59.120;37.904;2023-08-24T11:21:45;100040.53;;;18.92;48.90
78117;BME280;69042;59.120;37.904;2023-08-24T11:24:13;100036.19;;;19.02;49.14
78117;BME280;69042;59.120;37.904;2023-08-24T11:26:47;100045.69;;;19.16;48.95
78117;BME280;69042;59.120;37.904;2023-08-24T11:29:14;100036.66;;;19.30;49.37
78117;BME280;69042;59.120;37.904;2023-08-24T11:31:43;100038.06;;;19.45;49.00
78117;BME280;69042;59.120;37.904;2023-08-24T11:34:10;100032.50;;;19.60;49.32
78117;BME280;69042;59.120;37.904;2023-08-24T11:36:46;100032.03;;;19.77;48.70
78117;BME280;69042;59.120;37.904;2023-08-24T11:39:17;100038.34;;;19.86;48.53
78117;BME280;69042;59.120;37.904;2023-08-24T11:42:05;100039.66;;;19.91;48.52
78117;BME280;69042;59.120;37.904;2023-08-24T11:44:49;100032.78;;;20.00;48.57
78117;BME280;69042;59.120;37.904;2023-08-24T11:47:16;100024.50;;;20.14;48.69
78117;BME280;69042;59.120;37.904;2023-08-24T11:49:42;100022.63;;;20.26;48.53
78117;BME280;69042;59.120;37.904;2023-08-24T11:52:09;100013.91;;;20.35;48.66
78117;BME280;69042;59.120;37.904;2023-08-24T11:54:38;100019.16;;;20.47;48.17
78117;BME280;69042;59.120;37.904;2023-08-24T11:57:08;100018.84;;;20.61;47.89
78117;BME280;69042;59.120;37.904;2023-08-24T11:59:35;100019.31;;;20.76;48.06
78117;BME280;69042;59.120;37.904;2023-08-24T12:02:03;100011.72;;;20.92;47.47
78117;BME280;69042;59.120;37.904;2023-08-24T12:04:40;100021.56;;;21.11;46.47
78117;BME280;69042;59.120;37.904;2023-08-24T12:07:11;100013.78;;;21.29;46.12
78117;BME280;69042;59.120;37.904;2023-08-24T12:09:41;100020.84;;;21.50;45.90
78117;BME280;69042;59.120;37.904;2023-08-24T12:12:14;100016.53;;;21.58;44.98
78117;BME280;69042;59.120;37.904;2023-08-24T12:14:44;100013.31;;;21.55;44.49
78117;BME280;69042;59.120;37.904;2023-08-24T12:17:10;100014.13;;;21.46;44.17
78117;BME280;69042;59.120;37.904;2023-08-24T12:19:41;100011.72;;;21.33;44.01
78117;BME280;69042;59.120;37.904;2023-08-24T12:22:12;100016.03;;;21.34;43.88
78117;BME280;69042;59.120;37.904;2023-08-24T12:24:43;100008.81;;;21.46;43.70
78117;BME280;69042;59.120;37.904;2023-08-24T12:27:19;100008.25;;;21.52;43.34
78117;BME280;69042;59.120;37.904;2023-08-24T12:29:46;100012.34;;;21.56;43.17
78117;BME280;69042;59.120;37.904;2023-08-24T12:32:12;100007.31;;;21.53;42.71
78117;BME280;69042;59.120;37.904;2023-08-24T12:34:41;100005.91;;;21.58;43.08
78117;BME280;69042;59.120;37.904;2023-08-24T12:37:08;99997.22;;;21.86;43.51
78117;BME280;69042;59.120;37.904;2023-08-24T12:39:36;99999.91;;;22.72;44.16
78117;BME280;69042;59.120;37.904;2023-08-24T12:42:03;99990.28;;;24.07;44.22
78117;BME280;69042;59.120;37.904;2023-08-24T12:44:30;99990.91;;;25.65;43.55
78117;BME280;69042;59.120;37.904;2023-08-24T12:46:59;99987.28;;;26.95;41.72
78117;BME280;69042;59.120;37.904;2023-08-24T12:49:25;99979.81;;;28.14;40.04
78117;BME280;69042;59.120;37.904;2023-08-24T12:51:52;99979.16;;;29.10;37.69
78117;BME280;69042;59.120;37.904;2023-08-24T12:54:18;99976.19;;;29.77;35.70
78117;BME280;69042;59.120;37.904;2023-08-24T12:56:44;99974.91;;;30.23;34.74
78117;BME280;69042;59.120;37.904;2023-08-24T12:59:10;99977.06;;;30.34;33.10
78117;BME280;69042;59.120;37.904;2023-08-24T13:01:37;99977.78;;;29.72;32.16